Time;durP1;ratioP1;P1;durP2;ratioP2;P2;SDS_P1;SDS_P2;PMS_P1;PMS_P2;Temp;Humidity;BMP_temperature;BMP_pressure;BME280_temperature;BME280_humidity;BME280_pressure;Samples;Min_cycle;Max_cycle;Signal;HPM_P1;HPM_P2
2023/10/05 00:02:08;;;;;;;;;49.50;39.25;;;;;19.66;70.68;101106.03;5077382;28;45503;-86
2023/10/05 00:04:47;;;;;;;;;27.50;24.75;;;;;19.62;71.07;101094.53;5074987;28;45568;-86
2023/10/05 00:07:33;;;;;;;;;35.25;30.25;;;;;19.67;71.51;101100.72;5045555;28;45510;-86
2023/10/05 00:10:00;;;;;;;;;30.25;29.50;;;;;19.71;70.81;101095.44;5059390;28;45328;-85
2023/10/05 00:12:26;;;;;;;;;27.75;25.75;;;;;19.77;70.98;101095.47;5048230;28;45370;-85
2023/10/05 00:15:14;;;;;;;;;25.00;23.75;;;;;19.85;70.17;101099.88;5059349;28;46360;-73
2023/10/05 00:17:40;;;;;;;;;17.50;17.00;;;;;19.84;69.28;101097.25;5060536;28;45346;-72
2023/10/05 00:20:10;;;;;;;;;21.50;21.00;;;;;19.85;69.09;101091.06;5078756;28;45401;-72
2023/10/05 00:22:37;;;;;;;;;18.75;16.75;;;;;19.88;69.34;101096.38;5078912;27;45486;-72
2023/10/05 00:25:04;;;;;;;;;18.50;16.75;;;;;19.78;69.49;101087.53;5042613;28;45524;-72
2023/10/05 00:27:30;;;;;;;;;14.67;14.67;;;;;19.85;69.87;101102.53;5078301;28;45415;-72
2023/10/05 00:29:57;;;;;;;;;14.00;13.00;;;;;19.88;69.74;101100.81;5050400;28;45339;-85
2023/10/05 00:32:35;;;;;;;;;11.67;11.67;;;;;19.82;69.33;101089.28;5051855;28;45376;-86
2023/10/05 00:35:16;;;;;;;;;10.33;10.33;;;;;19.83;69.47;101096.34;5060059;28;46292;-72
2023/10/05 00:37:45;;;;;;;;;10.00;10.00;;;;;19.83;69.31;101104.31;5043932;28;45433;-73
2023/10/05 00:40:17;;;;;;;;;11.00;10.00;;;;;19.79;69.03;101101.66;5073467;28;45292;-83
2023/10/05 00:42:43;;;;;;;;;10.67;10.00;;;;;19.80;69.02;101108.75;5058922;28;45237;-71
2023/10/05 00:45:11;;;;;;;;;12.67;11.67;;;;;19.75;69.20;101107.84;5058350;28;46157;-85
2023/10/05 00:47:38;;;;;;;;;10.00;9.33;;;;;19.69;69.24;101100.72;5057569;28;45581;-85
2023/10/05 00:50:04;;;;;;;;;10.00;8.33;;;;;19.64;69.37;101092.78;5072143;28;45416;-72
2023/10/05 00:52:31;;;;;;;;;10.00;9.00;;;;;19.65;69.25;101088.34;5058248;28;45458;-72
2023/10/05 00:54:59;;;;;;;;;10.00;10.00;;;;;19.69;69.68;101087.47;5073351;27;46144;-85
2023/10/05 00:57:26;;;;;;;;;10.00;9.33;;;;;19.71;69.50;101091.03;5060679;27;45472;-72
2023/10/05 01:02:45;;;;;;;;;10.00;9.00;;;;;19.68;68.88;101085.72;5065757;28;45473;-85
2023/10/05 01:05:25;;;;;;;;;11.00;10.33;;;;;19.75;69.32;101091.94;5070263;28;46245;-85
2023/10/05 01:07:56;;;;;;;;;9.67;8.67;;;;;19.73;69.02;101083.09;5076695;28;45696;-72
2023/10/05 01:12:48;;;;;;;;;13.00;12.67;;;;;19.45;69.13;101083.03;5069594;28;45476;-72
2023/10/05 01:15:19;;;;;;;;;13.00;12.00;;;;;19.41;69.30;101089.19;5062566;28;46146;-72
2023/10/05 01:17:51;;;;;;;;;14.67;13.67;;;;;19.38;69.87;101087.44;5057989;28;45609;-73
2023/10/05 01:22:46;;;;;;;;;36.00;29.75;;;;;19.36;69.79;101090.94;5078044;28;45310;-85
2023/10/05 01:25:14;;;;;;;;;37.00;32.75;;;;;19.34;70.49;101087.41;5061312;28;46165;-85
2023/10/05 01:27:42;;;;;;;;;40.25;33.75;;;;;19.35;70.32;101082.13;5071657;28;45580;-72
2023/10/05 01:30:12;;;;;;;;;43.00;34.75;;;;;19.33;70.18;101083.00;5068673;28;45367;-71
2023/10/05 01:32:41;;;;;;;;;26.50;25.75;;;;;19.36;70.46;101088.28;5078069;28;45364;-73
2023/10/05 01:35:13;;;;;;;;;28.25;25.00;;;;;19.33;70.84;101067.97;5077377;28;46268;-83
2023/10/05 01:37:40;;;;;;;;;24.50;21.75;;;;;19.41;70.44;101082.13;5050340;28;45433;-79
2023/10/05 01:40:19;;;;;;;;;32.75;31.00;;;;;19.41;69.99;101073.31;5058061;28;45439;-73
2023/10/05 01:42:47;;;;;;;;;26.50;24.25;;;;;19.36;70.07;101061.78;5073044;28;45488;-79
2023/10/05 01:45:21;;;;;;;;;22.75;22.00;;;;;19.38;69.64;101065.38;5060887;28;47856;-72
2023/10/05 01:47:46;;;;;;;;;20.75;19.50;;;;;19.40;70.09;101053.00;5039387;28;45363;-84
2023/10/05 01:50:23;;;;;;;;;18.50;17.75;;;;;19.39;69.40;101044.16;5058751;28;45518;-85
2023/10/05 01:53:15;;;;;;;;;21.50;18.75;;;;;19.36;69.63;101044.16;5070867;28;45539;-85
2023/10/05 01:55:44;;;;;;;;;20.25;19.75;;;;;19.39;69.61;101036.19;5071953;28;45817;-72
2023/10/05 01:58:13;;;;;;;;;17.00;16.00;;;;;19.32;69.86;101026.50;5057441;28;45296;-86
2023/10/05 02:00:40;;;;;;;;;14.75;13.50;;;;;19.32;69.26;101026.50;5057780;28;45847;-72
2023/10/05 02:03:12;;;;;;;;;15.75;15.50;;;;;19.28;69.54;101017.66;5068978;28;45344;-71
2023/10/05 02:05:37;;;;;;;;;12.75;12.25;;;;;19.32;69.38;101023.84;5076854;28;46189;-72
2023/10/05 02:08:04;;;;;;;;;14.25;13.25;;;;;19.24;69.28;101013.22;5076944;28;45446;-86
2023/10/05 02:10:34;;;;;;;;;16.50;15.25;;;;;19.17;69.10;101014.09;5069334;28;45601;-72
2023/10/05 02:13:01;;;;;;;;;19.00;17.00;;;;;18.97;69.08;101023.75;5070281;28;45249;-84
2023/10/05 02:15:30;;;;;;;;;20.25;18.25;;;;;18.85;69.67;101024.59;5069144;28;45418;-83
2023/10/05 02:18:02;;;;;;;;;29.25;28.75;;;;;18.82;69.79;101033.41;5076868;28;45359;-85
2023/10/05 02:22:56;;;;;;;;;27.75;25.00;;;;;18.73;70.94;101014.81;5077009;28;45492;-74
2023/10/05 02:25:24;;;;;;;;;31.25;27.25;;;;;18.84;70.79;101028.09;5055515;28;45917;-85
2023/10/05 02:27:51;;;;;;;;;33.25;30.75;;;;;18.79;72.16;101027.19;5038982;28;45734;-84
2023/10/05 02:30:17;;;;;;;;;34.75;30.75;;;;;18.64;72.13;101006.81;5074557;28;45495;-84
2023/10/05 02:32:44;;;;;;;;;30.75;28.75;;;;;18.79;71.72;101030.75;5055479;28;45561;-86
2023/10/05 02:35:24;;;;;;;;;16.50;15.50;;;;;18.87;71.65;101031.66;5048930;28;46213;-79
2023/10/05 02:37:52;;;;;;;;;21.00;19.25;;;;;18.85;71.48;101019.31;5041602;28;45588;-77
2023/10/05 02:40:25;;;;;;;;;21.00;18.75;;;;;18.87;71.22;101020.19;5071947;28;45423;-74
2023/10/05 02:42:51;;;;;;;;;21.00;18.50;;;;;18.92;71.03;101022.84;5067041;28;45328;-79
2023/10/05 02:45:17;;;;;;;;;17.00;16.50;;;;;18.87;70.33;101010.47;5062948;28;46221;-85
2023/10/05 02:47:43;;;;;;;;;16.75;16.50;;;;;18.89;70.22;101013.13;5057491;28;45434;-77
2023/10/05 02:50:09;;;;;;;;;18.50;17.75;;;;;18.91;69.93;101013.16;5055387;28;45817;-85
2023/10/05 02:52:36;;;;;;;;;16.50;15.50;;;;;18.93;70.38;101011.41;5039346;28;45406;-72
2023/10/05 02:55:06;;;;;;;;;14.33;14.00;;;;;18.97;70.20;101018.47;5076024;28;46196;-72
2023/10/05 02:57:31;;;;;;;;;16.67;14.67;;;;;18.99;70.33;101022.88;5076604;28;45514;-72
2023/10/05 02:59:59;;;;;;;;;13.33;12.67;;;;;19.00;70.43;101014.06;5071470;28;45385;-74
2023/10/05 03:02:25;;;;;;;;;13.00;13.00;;;;;19.01;71.26;101012.28;5070736;28;45518;-72
2023/10/05 03:05:02;;;;;;;;;11.33;10.33;;;;;18.99;71.59;101009.63;5062881;28;45532;-82
2023/10/05 03:07:28;;;;;;;;;14.25;12.25;;;;;18.99;71.18;101016.69;5076055;28;45457;-85
2023/10/05 03:09:59;;;;;;;;;12.00;12.00;;;;;19.00;71.97;101019.38;5075545;28;45657;-84
2023/10/05 03:12:25;;;;;;;;;12.00;10.67;;;;;19.02;71.60;101014.94;5056712;28;45378;-72
2023/10/05 03:14:51;;;;;;;;;10.00;9.00;;;;;18.99;71.69;101012.28;5064223;28;45346;-84
2023/10/05 03:17:21;;;;;;;;;14.00;13.00;;;;;18.92;70.10;101007.88;5076223;28;45562;-85
2023/10/05 03:19:53;;;;;;;;;22.00;19.25;;;;;18.71;70.10;101016.56;5076058;28;45388;-83
2023/10/05 03:22:23;;;;;;;;;21.25;19.75;;;;;18.60;70.41;101013.91;5057413;28;45398;-72
2023/10/05 03:24:49;;;;;;;;;22.50;20.75;;;;;18.58;70.71;101015.66;5055674;28;45286;-74
2023/10/05 03:27:16;;;;;;;;;23.00;18.50;;;;;18.61;70.81;101018.28;5049336;28;45352;-85
2023/10/05 03:29:45;;;;;;;;;20.25;19.50;;;;;18.40;71.91;100997.94;5042284;28;45324;-72
2023/10/05 03:34:37;;;;;;;;;15.75;15.00;;;;;18.42;72.31;101003.19;5067954;28;45936;-85
2023/10/05 03:37:13;;;;;;;;;19.25;16.50;;;;;18.53;72.75;101013.84;5038165;28;45512;-83
2023/10/05 03:42:34;;;;;;;;;16.00;14.00;;;;;18.54;72.93;101005.03;5044961;28;45600;-72
2023/10/05 03:45:09;;;;;;;;;15.25;14.25;;;;;18.49;73.25;100995.31;5075981;28;45983;-78
2023/10/05 03:47:38;;;;;;;;;16.33;14.67;;;;;18.59;72.95;101005.94;5066943;28;45690;-80
2023/10/05 03:50:05;;;;;;;;;17.50;14.50;;;;;18.67;72.77;101009.50;5038203;28;45403;-85
2023/10/05 03:52:32;;;;;;;;;20.75;19.00;;;;;18.70;72.20;101001.56;5054278;28;45596;-72
2023/10/05 03:55:09;;;;;;;;;23.75;20.75;;;;;18.73;71.65;100998.06;5075808;28;46133;-85
2023/10/05 03:57:36;;;;;;;;;22.25;20.00;;;;;18.76;71.70;101009.53;5071746;28;45448;-85
2023/10/05 04:00:18;;;;;;;;;19.25;18.25;;;;;18.74;71.43;101011.31;5057991;28;45620;-73
2023/10/05 04:02:44;;;;;;;;;17.33;14.67;;;;;18.68;71.63;101003.31;5065350;28;45496;-85
2023/10/05 04:05:11;;;;;;;;;16.00;15.00;;;;;18.68;71.77;101003.31;5069326;28;46116;-72
2023/10/05 04:07:40;;;;;;;;;14.00;13.33;;;;;18.68;71.91;100996.28;5055798;28;45506;-84
2023/10/05 04:10:07;;;;;;;;;16.25;15.25;;;;;18.73;71.46;101000.72;5078451;27;45693;-79
2023/10/05 04:12:32;;;;;;;;;15.50;15.50;;;;;18.75;70.92;101013.06;5072867;28;45387;-75
2023/10/05 04:15:06;;;;;;;;;14.00;11.33;;;;;18.70;71.48;101022.72;5048326;28;46432;-85
2023/10/05 04:17:31;;;;;;;;;13.67;13.00;;;;;18.74;71.68;101018.34;5053912;28;45411;-73
2023/10/05 04:19:58;;;;;;;;;13.00;12.00;;;;;18.72;71.50;101018.34;5066164;28;45372;-77
2023/10/05 04:22:24;;;;;;;;;15.00;15.00;;;;;18.73;71.45;101006.00;5074302;28;45262;-80
2023/10/05 04:24:50;;;;;;;;;14.00;13.67;;;;;18.75;71.63;101021.00;5071666;28;46039;-73
2023/10/05 04:27:18;;;;;;;;;15.33;13.00;;;;;18.80;71.23;101018.38;5073945;28;44765;-84
2023/10/05 04:29:44;;;;;;;;;13.67;12.00;;;;;18.82;71.34;101025.47;5108878;27;45340;-72
2023/10/05 04:32:13;;;;;;;;;13.00;12.33;;;;;18.80;71.25;101032.53;5111450;27;45420;-72
2023/10/05 04:34:39;;;;;;;;;14.00;13.67;;;;;18.70;71.43;101025.38;5108839;27;45350;-78
2023/10/05 04:37:05;;;;;;;;;14.00;14.00;;;;;18.68;71.30;101032.41;5105916;27;45362;-81
2023/10/05 04:39:32;;;;;;;;;16.00;14.00;;;;;18.64;70.87;101023.59;5102592;27;45444;-72
2023/10/05 04:42:11;;;;;;;;;14.50;12.75;;;;;18.69;71.25;101034.22;5086085;27;45443;-85
2023/10/05 04:44:38;;;;;;;;;15.00;13.00;;;;;18.71;71.02;101027.16;5074961;27;45556;-85
2023/10/05 04:47:04;;;;;;;;;11.67;11.33;;;;;18.68;71.44;101020.09;5088236;27;45487;-84
2023/10/05 04:49:31;;;;;;;;;12.50;12.00;;;;;18.65;70.63;101027.13;5084426;27;45569;-80
2023/10/05 04:51:57;;;;;;;;;11.67;11.67;;;;;18.63;70.77;101020.94;5088912;27;45829;-83
2023/10/05 04:54:26;;;;;;;;;11.67;10.33;;;;;18.69;70.98;101032.44;5073756;27;45420;-79
2023/10/05 04:57:07;;;;;;;;;11.33;10.00;;;;;18.66;71.23;101031.53;5087058;27;45323;-80
2023/10/05 05:02:12;;;;;;;;;11.33;9.33;;;;;18.76;71.40;101028.06;5083228;27;45394;-85
2023/10/05 05:07:19;;;;;;;;;11.00;11.00;;;;;18.74;71.46;101039.50;5086497;27;45525;-82
2023/10/05 05:09:45;;;;;;;;;10.67;10.67;;;;;18.63;71.96;101026.25;5082811;27;45391;-85
2023/10/05 05:12:20;;;;;;;;;15.00;13.67;;;;;18.60;72.17;101039.44;5088384;27;45429;-85
2023/10/05 05:14:52;;;;;;;;;18.75;17.00;;;;;18.63;71.90;101042.13;5067310;27;46930;-85
2023/10/05 05:17:19;;;;;;;;;17.00;15.75;;;;;18.57;72.20;101020.94;5086311;27;45619;-72
2023/10/05 05:19:46;;;;;;;;;13.33;11.67;;;;;18.61;72.05;101036.81;5087206;27;45454;-85
2023/10/05 05:22:13;;;;;;;;;9.67;9.00;;;;;18.58;71.30;101039.47;5084493;27;45520;-86
2023/10/05 05:24:40;;;;;;;;;9.00;8.50;;;;;18.64;71.19;101041.22;5089150;27;45446;-77
2023/10/05 05:29:45;;;;;;;;;11.75;11.75;;;;;18.54;71.28;101026.19;5084583;27;45338;-83
2023/10/05 05:32:29;;;;;;;;;16.00;15.50;;;;;18.61;71.15;101054.47;5087410;27;45702;-85
2023/10/05 05:34:55;;;;;;;;;17.00;16.75;;;;;18.58;71.17;101050.03;5067534;27;45629;-84
2023/10/05 05:37:29;;;;;;;;;21.50;20.50;;;;;18.54;71.55;101052.66;5086864;27;45625;-85
2023/10/05 05:39:57;;;;;;;;;17.75;16.75;;;;;18.62;71.41;101057.13;5066741;27;45453;-82
2023/10/05 05:42:25;;;;;;;;;12.33;12.33;;;;;18.54;70.91;101032.34;5087777;27;45350;-84
2023/10/05 05:44:55;;;;;;;;;10.33;10.33;;;;;18.69;70.49;101060.66;5087284;27;45536;-85
2023/10/05 05:47:20;;;;;;;;;13.67;11.67;;;;;18.67;70.56;101054.50;5081485;27;45474;-85
2023/10/05 05:49:47;;;;;;;;;26.00;24.00;;;;;18.66;70.31;101050.06;5063770;27;45302;-85
2023/10/05 05:52:15;;;;;;;;;17.50;15.50;;;;;18.68;70.36;101048.31;5087063;27;45978;-72
2023/10/05 05:54:42;;;;;;;;;12.67;11.33;;;;;18.75;70.23;101055.41;5077541;27;46085;-85
2023/10/05 05:57:12;;;;;;;;;9.67;9.00;;;;;18.69;69.87;101045.66;5077127;28;45450;-72
2023/10/05 05:59:39;;;;;;;;;14.00;11.00;;;;;18.73;70.40;101057.16;5076403;28;45476;-83
2023/10/05 06:02:10;;;;;;;;;9.33;9.00;;;;;18.71;70.72;101060.69;5066466;28;45534;-84
2023/10/05 06:04:38;;;;;;;;;11.67;10.33;;;;;18.62;71.03;101070.34;5074387;28;45508;-85
2023/10/05 06:07:11;;;;;;;;;11.00;10.00;;;;;18.60;70.97;101068.56;5072180;28;45432;-86
2023/10/05 06:09:39;;;;;;;;;11.67;10.00;;;;;18.64;71.20;101062.41;5056714;28;45461;-85
2023/10/05 06:12:05;;;;;;;;;13.00;12.00;;;;;18.45;70.63;101058.78;5076414;28;45457;-84
2023/10/05 06:14:34;;;;;;;;;12.50;10.25;;;;;18.36;70.66;101056.94;5057188;28;45749;-74
2023/10/05 06:17:00;;;;;;;;;15.75;15.00;;;;;18.38;70.29;101063.16;5073615;28;45316;-75
2023/10/05 06:19:27;;;;;;;;;16.00;14.00;;;;;18.30;70.78;101070.13;5074325;28;45561;-84
2023/10/05 06:21:53;;;;;;;;;17.00;15.00;;;;;18.33;71.03;101075.47;5074965;28;45481;-85
2023/10/05 06:24:18;;;;;;;;;17.50;15.50;;;;;18.40;70.87;101082.56;5075747;28;45414;-84
2023/10/05 06:26:45;;;;;;;;;20.50;19.25;;;;;18.48;70.81;101082.59;5073227;28;45756;-72
2023/10/05 06:29:13;;;;;;;;;12.75;11.50;;;;;18.44;70.50;101075.50;5057874;28;45582;-84
2023/10/05 06:31:40;;;;;;;;;15.00;14.75;;;;;18.57;70.92;101079.13;5071804;28;45462;-72
2023/10/05 06:34:09;;;;;;;;;17.00;17.00;;;;;18.56;71.24;101072.97;5073256;28;46415;-72
2023/10/05 06:36:40;;;;;;;;;18.50;17.00;;;;;18.71;71.14;101079.22;5058924;27;45526;-70
2023/10/05 06:39:06;;;;;;;;;15.25;14.25;;;;;18.79;71.42;101082.78;5071250;28;45513;-84
2023/10/05 06:41:38;;;;;;;;;14.75;13.50;;;;;18.92;70.24;101081.09;5056129;28;45513;-72
2023/10/05 06:44:07;;;;;;;;;16.00;13.00;;;;;18.95;70.27;101081.13;5074410;28;45580;-72
2023/10/05 06:46:33;;;;;;;;;10.33;10.33;;;;;19.07;69.54;101087.31;5075293;28;45638;-72
2023/10/05 06:49:00;;;;;;;;;13.00;11.33;;;;;19.14;69.10;101098.84;5056684;28;45636;-71
2023/10/05 06:51:26;;;;;;;;;13.33;11.00;;;;;19.17;69.25;101088.25;5054566;28;45453;-72
2023/10/05 06:53:53;;;;;;;;;14.67;13.00;;;;;19.18;68.83;101094.41;5074460;28;46208;-72
2023/10/05 06:56:22;;;;;;;;;26.00;24.50;;;;;19.14;69.48;101098.84;5056619;28;45467;-84
2023/10/05 06:58:48;;;;;;;;;26.50;22.00;;;;;19.06;69.92;101092.66;5075297;28;45434;-75
2023/10/05 07:01:20;;;;;;;;;21.50;20.50;;;;;19.06;69.80;101088.22;5075995;28;45376;-73
2023/10/05 07:03:57;;;;;;;;;19.50;18.25;;;;;19.07;70.68;101091.75;5074856;28;46072;-84
2023/10/05 07:06:24;;;;;;;;;20.25;18.00;;;;;19.15;71.03;101097.06;5054632;28;45355;-72
2023/10/05 07:08:52;;;;;;;;;21.00;19.75;;;;;19.27;70.50;101095.34;5054242;27;45548;-78
2023/10/05 07:11:21;;;;;;;;;23.25;20.00;;;;;19.41;70.67;101098.03;5075714;28;45470;-72
2023/10/05 07:13:48;;;;;;;;;19.00;19.00;;;;;19.48;70.25;101073.31;5073923;28;45471;-72
2023/10/05 07:16:14;;;;;;;;;17.50;16.75;;;;;19.87;69.45;101073.38;5076184;28;45458;-72
2023/10/05 07:18:40;;;;;;;;;15.75;15.50;;;;;20.22;68.63;101083.09;5075331;28;45535;-72
2023/10/05 07:21:08;;;;;;;;;15.00;14.50;;;;;20.48;68.15;101084.81;5063945;28;45429;-85
2023/10/05 07:23:37;;;;;;;;;13.67;12.00;;;;;20.76;67.82;101077.69;5073225;28;45474;-71
2023/10/05 07:26:07;;;;;;;;;13.67;12.67;;;;;21.09;67.05;101083.75;5069245;28;45352;-77
2023/10/05 07:28:36;;;;;;;;;11.33;11.00;;;;;21.77;65.34;101078.94;5061684;28;45406;-74
2023/10/05 07:31:05;;;;;;;;;12.33;11.33;;;;;22.46;63.24;101090.75;5070933;28;45430;-72
2023/10/05 07:33:36;;;;;;;;;11.67;10.00;;;;;22.80;61.78;101101.91;5056565;27;45558;-72
2023/10/05 07:36:02;;;;;;;;;14.67;12.33;;;;;22.87;60.68;101092.06;5076466;28;45479;-72
2023/10/05 07:38:28;;;;;;;;;11.67;9.00;;;;;23.35;60.94;101103.03;5066033;28;45359;-87
2023/10/05 07:40:58;;;;;;;;;11.33;9.67;;;;;24.38;57.58;101094.25;5079297;28;45262;-87
2023/10/05 07:43:27;;;;;;;;;11.67;10.33;;;;;25.36;54.32;101056.66;5080747;28;45990;-90
2023/10/05 07:45:53;;;;;;;;;9.67;9.67;;;;;26.79;51.03;101090.50;5076810;28;45536;-81
2023/10/05 07:48:19;;;;;;;;;10.00;8.67;;;;;27.82;50.35;101094.53;5077718;28;45616;-71
2023/10/05 07:50:48;;;;;;;;;12.33;9.33;;;;;28.85;47.79;101095.44;5077836;28;45596;-87
2023/10/05 07:53:14;;;;;;;;;11.00;10.00;;;;;29.62;45.77;101095.16;5068111;27;46890;-88
2023/10/05 07:55:41;;;;;;;;;9.00;8.33;;;;;30.31;43.53;101095.88;5077881;28;45509;-77
2023/10/05 07:58:07;;;;;;;;;8.67;8.00;;;;;30.71;42.66;101104.88;5075643;27;47076;-89
2023/10/05 08:00:33;;;;;;;;;9.00;8.33;;;;;31.07;42.54;101100.59;5078754;28;45394;-72
2023/10/05 08:02:59;;;;;;;;;11.00;9.00;;;;;31.69;42.55;101094.03;5076680;28;46329;-88
2023/10/05 08:05:25;;;;;;;;;8.00;8.00;;;;;32.44;42.14;101101.97;5077569;28;45440;-71
2023/10/05 08:07:51;;;;;;;;;7.67;7.00;;;;;32.73;39.85;101107.66;5079205;28;45231;-71
2023/10/05 08:10:18;;;;;;;;;10.00;10.00;;;;;33.03;39.19;101100.59;5079760;28;45343;-71
2023/10/05 08:12:45;;;;;;;;;9.67;8.33;;;;;33.56;37.79;101106.66;5062369;28;45436;-72
2023/10/05 08:15:16;;;;;;;;;9.00;9.00;;;;;33.90;39.09;101120.97;5070083;28;45446;-86
2023/10/05 08:17:41;;;;;;;;;7.00;6.67;;;;;34.32;37.08;101116.72;5059010;28;45537;-71
2023/10/05 08:20:07;;;;;;;;;9.00;9.00;;;;;34.68;38.46;101118.16;5058797;28;45582;-71
2023/10/05 08:22:35;;;;;;;;;10.00;8.00;;;;;35.08;36.61;101117.44;5076379;28;46203;-70
2023/10/05 08:25:09;;;;;;;;;11.33;8.67;;;;;35.51;36.90;101122.84;5076723;28;45568;-72
2023/10/05 08:27:36;;;;;;;;;7.00;7.00;;;;;35.88;34.96;101128.59;5070035;28;45513;-72
2023/10/05 08:30:03;;;;;;;;;8.33;8.00;;;;;36.26;35.63;101128.72;5077903;28;45492;-73
2023/10/05 08:32:32;;;;;;;;;9.00;8.00;;;;;36.54;34.25;101129.50;5073302;28;46060;-75
2023/10/05 08:34:58;;;;;;;;;7.00;7.00;;;;;36.60;33.75;101121.78;5044933;28;45400;-69
2023/10/05 08:37:27;;;;;;;;;8.00;8.00;;;;;36.60;33.29;101131.78;5061046;28;45634;-70
2023/10/05 08:39:53;;;;;;;;;7.67;6.67;;;;;36.59;33.11;101122.78;5074271;28;45632;-69
2023/10/05 08:42:20;;;;;;;;;8.00;7.00;;;;;36.99;34.37;101130.84;5076201;28;45532;-79
2023/10/05 08:44:47;;;;;;;;;7.67;7.33;;;;;37.27;32.86;101128.00;5069991;28;45376;-70
2023/10/05 08:47:15;;;;;;;;;8.00;7.00;;;;;37.12;32.40;101128.13;5058836;28;45411;-71
2023/10/05 08:49:43;;;;;;;;;8.00;8.00;;;;;37.08;32.49;101131.16;5066331;28;45486;-71
2023/10/05 08:52:18;;;;;;;;;8.67;8.67;;;;;37.16;32.90;101131.47;5076881;27;46219;-71
2023/10/05 08:54:46;;;;;;;;;9.00;7.33;;;;;37.36;32.30;101133.59;5061731;28;45319;-71
2023/10/05 08:57:13;;;;;;;;;7.33;6.33;;;;;37.58;33.51;101130.16;5072565;28;45358;-70
2023/10/05 08:59:45;;;;;;;;;6.67;6.67;;;;;37.93;33.20;101129.38;5058481;28;45297;-71
2023/10/05 09:02:11;;;;;;;;;6.33;6.33;;;;;38.18;32.96;101120.22;5057811;28;45589;-71
2023/10/05 09:04:43;;;;;;;;;8.00;7.67;;;;;38.36;31.82;101120.66;5057692;28;45500;-71
2023/10/05 09:07:25;;;;;;;;;7.33;7.33;;;;;38.40;31.56;101124.88;5063990;28;45391;-71
2023/10/05 09:09:54;;;;;;;;;6.33;6.33;;;;;38.35;31.96;101123.47;5078692;28;45438;-71
2023/10/05 09:12:37;;;;;;;;;8.33;8.00;;;;;38.08;31.54;101123.75;5059328;28;47083;-71
2023/10/05 09:17:57;;;;;;;;;8.67;7.67;;;;;38.40;32.01;101118.50;5072008;28;45323;-70
2023/10/05 09:20:32;;;;;;;;;8.00;8.00;;;;;38.26;32.53;101116.91;5059231;28;45252;-75
2023/10/05 09:23:06;;;;;;;;;9.00;8.00;;;;;37.92;32.76;101110.41;5065594;28;45399;-85
2023/10/05 09:25:34;;;;;;;;;6.67;6.67;;;;;37.79;33.34;101111.34;5077613;28;45768;-71
2023/10/05 09:28:13;;;;;;;;;11.00;10.67;;;;;37.56;33.54;101109.44;5075460;28;45421;-71
2023/10/05 09:30:57;;;;;;;;;7.67;7.67;;;;;37.73;32.93;101120.00;5077362;28;45355;-71
2023/10/05 09:33:27;;;;;;;;;8.00;7.67;;;;;37.61;32.19;101105.44;5077729;28;45535;-71
2023/10/05 09:36:06;;;;;;;;;11.33;9.67;;;;;37.08;33.88;101103.91;5067996;28;45398;-73
2023/10/05 09:38:38;;;;;;;;;8.67;7.67;;;;;37.01;34.47;101106.22;5069191;28;45567;-71
2023/10/05 09:41:05;;;;;;;;;8.67;8.00;;;;;37.18;33.44;101100.41;5070475;27;45428;-71
2023/10/05 09:43:38;;;;;;;;;11.00;10.00;;;;;37.07;33.62;101111.22;5059970;28;45734;-82
2023/10/05 09:46:09;;;;;;;;;8.33;7.67;;;;;36.89;33.79;101107.97;5072824;28;45478;-85
2023/10/05 09:48:39;;;;;;;;;7.00;7.00;;;;;36.68;34.34;101104.06;5061302;28;45355;-71
2023/10/05 09:51:13;;;;;;;;;7.00;6.67;;;;;36.01;35.14;101097.75;5076902;28;45466;-71
2023/10/05 09:53:43;;;;;;;;;7.33;6.00;;;;;36.20;36.03;101102.81;5076648;28;45488;-71
2023/10/05 09:56:13;;;;;;;;;15.67;15.00;;;;;36.71;34.76;101098.38;5076623;28;45378;-72
2023/10/05 09:58:43;;;;;;;;;8.67;8.67;;;;;37.13;34.47;101101.75;5069721;28;45499;-71
2023/10/05 10:01:12;;;;;;;;;10.00;9.33;;;;;36.93;34.77;101104.06;5058996;28;45300;-71
2023/10/05 10:03:45;;;;;;;;;7.33;7.33;;;;;37.04;35.47;101103.25;5078419;27;45398;-71
2023/10/05 10:06:18;;;;;;;;;8.67;7.67;;;;;36.97;34.92;101099.25;5039386;28;45536;-71
2023/10/05 10:08:57;;;;;;;;;10.67;10.33;;;;;37.24;34.54;101096.38;5056979;28;45210;-85
2023/10/05 10:11:31;;;;;;;;;6.67;6.67;;;;;37.13;35.39;101101.75;5076610;28;45362;-72
2023/10/05 10:14:08;;;;;;;;;10.00;9.67;;;;;37.05;34.86;101096.84;5063930;28;46050;-79
2023/10/05 10:16:34;;;;;;;;;12.00;11.67;;;;;36.50;35.68;101096.19;5054076;28;45586;-78
2023/10/05 10:19:07;;;;;;;;;26.33;25.33;;;;;36.22;36.81;101100.84;5052842;28;45455;-71
2023/10/05 10:21:42;;;;;;;;;10.00;9.00;;;;;36.44;36.91;101096.63;5067291;28;45441;-71
2023/10/05 10:24:14;;;;;;;;;9.33;9.00;;;;;36.55;36.27;101093.13;5060320;28;46028;-74
2023/10/05 10:27:18;;;;;;;;;9.00;9.00;;;;;36.46;36.22;101091.94;5073064;28;45589;-85
2023/10/05 10:29:46;;;;;;;;;15.00;14.33;;;;;36.34;36.77;101090.97;5057151;28;45367;-86
2023/10/05 10:32:21;;;;;;;;;8.33;8.00;;;;;35.81;37.06;101081.91;5060563;28;45451;-71
2023/10/05 10:34:50;;;;;;;;;9.67;9.00;;;;;35.72;37.51;101077.97;5056697;28;45548;-71
2023/10/05 10:37:44;;;;;;;;;9.00;9.00;;;;;35.59;37.55;101085.16;5056467;28;45557;-86
2023/10/05 10:42:50;;;;;;;;;23.67;22.67;;;;;35.49;38.12;101089.47;5079072;28;45378;-82
2023/10/05 10:45:44;;;;;;;;;8.00;7.67;;;;;35.48;38.12;101091.31;5077339;28;45354;-71
2023/10/05 10:48:28;;;;;;;;;34.75;31.50;;;;;35.34;38.33;101078.66;5058830;28;45417;-83
2023/10/05 10:50:59;;;;;;;;;12.00;12.00;;;;;35.15;38.69;101080.78;5063093;28;45567;-82
2023/10/05 10:53:31;;;;;;;;;8.00;8.00;;;;;35.05;38.62;101077.78;5057262;28;45308;-71
2023/10/05 10:56:04;;;;;;;;;9.00;9.00;;;;;34.99;39.05;101078.19;5076382;28;45347;-71
2023/10/05 10:58:32;;;;;;;;;12.67;11.67;;;;;34.96;39.11;101071.13;5065729;28;45549;-72
2023/10/05 11:01:02;;;;;;;;;10.67;10.00;;;;;34.74;39.71;101068.03;5071167;28;45451;-83
2023/10/05 11:03:30;;;;;;;;;33.25;30.00;;;;;34.66;39.63;101071.25;5072398;28;45498;-72
2023/10/05 11:06:01;;;;;;;;;37.50;33.25;;;;;34.66;39.62;101063.97;5056378;28;45395;-71
2023/10/05 11:08:32;;;;;;;;;11.33;9.33;;;;;34.60;40.02;101071.56;5055723;28;45587;-71
2023/10/05 11:11:19;;;;;;;;;8.33;8.33;;;;;34.14;40.30;101066.25;5056239;28;45405;-70
2023/10/05 11:13:54;;;;;;;;;7.00;6.00;;;;;34.13;40.25;101062.69;5066687;28;45548;-84
2023/10/05 11:16:21;;;;;;;;;14.67;13.67;;;;;34.07;40.05;101063.06;5075959;28;46092;-71
2023/10/05 11:18:57;;;;;;;;;9.00;8.33;;;;;34.02;40.14;101055.22;5059061;28;45522;-80
2023/10/05 11:21:26;;;;;;;;;9.33;8.33;;;;;34.06;39.69;101055.88;5068911;28;45454;-71
2023/10/05 11:23:57;;;;;;;;;8.00;7.67;;;;;33.88;40.55;101058.75;5056788;28;45352;-71
2023/10/05 11:26:33;;;;;;;;;21.67;20.67;;;;;33.53;40.19;101008.47;5056887;28;46558;-71
2023/10/05 11:29:15;;;;;;;;;56.25;45.25;;;;;33.65;40.55;101042.97;5063599;28;45493;-71
2023/10/05 11:31:44;;;;;;;;;10.33;10.33;;;;;33.67;40.54;101046.47;5064587;28;45364;-73
2023/10/05 11:34:10;;;;;;;;;33.67;28.67;;;;;33.42;41.68;101041.56;5071966;28;45388;-79
2023/10/05 11:36:39;;;;;;;;;9.00;7.67;;;;;33.42;41.31;101044.28;5053653;28;46503;-71
2023/10/05 11:39:20;;;;;;;;;9.00;8.67;;;;;33.36;41.61;101042.78;5056042;28;45369;-70
2023/10/05 11:41:46;;;;;;;;;10.00;9.67;;;;;33.06;42.20;101035.44;5056201;28;45380;-71
2023/10/05 11:44:18;;;;;;;;;47.25;39.50;;;;;32.96;42.78;101036.06;5058047;28;46163;-70
2023/10/05 11:46:46;;;;;;;;;9.00;8.00;;;;;32.68;43.00;101029.47;5075170;28;46255;-71
2023/10/05 11:49:15;;;;;;;;;9.00;9.00;;;;;32.34;43.65;101025.00;5063946;28;45254;-73
2023/10/05 11:51:56;;;;;;;;;8.33;7.67;;;;;32.34;43.42;101030.41;5055650;28;45464;-77
2023/10/05 11:54:24;;;;;;;;;9.00;8.33;;;;;32.13;43.84;101027.88;5069633;28;45461;-71
2023/10/05 11:56:55;;;;;;;;;7.33;7.33;;;;;32.08;43.82;101017.31;5044487;28;45409;-71